This is the latest recevied weather packets stored in our database for station/object W2SRH. If no packets are shown the sender has not sent any weather packets the latest 10 day(s).
| Time | Temp. | Humidity | Pressure | Rain* | Wind** | Luminosity | Snow |
|---|---|---|---|---|---|---|---|
| 1787758983 | 25° C | 52% | 1011.3 hPa | 0 mm | 0.89 m/s, 320° | - | - |
| 1787758746 | 25.56° C | 51% | 1011.2 hPa | 0 mm | 0.89 m/s, 354° | - | - |
| 1787758145 | 25° C | 52% | 1011.3 hPa | 0 mm | 0 m/s | - | - |
| 1787757546 | 25° C | 52% | 1011.3 hPa | 0 mm | 0.89 m/s, 320° | - | - |
| 1787757062 | 24.44° C | 54% | 1011.3 hPa | 0 mm | 0.89 m/s, 27° | - | - |
| 1787756944 | 25° C | 52% | 1011.3 hPa | 0 mm | 0.89 m/s, 122° | - | - |
| 1787756345 | 24.44° C | 53% | 1011.3 hPa | 0 mm | 0.89 m/s, 39° | - | - |
| 1787755747 | 24.44° C | 54% | 1011.3 hPa | 0 mm | 0.89 m/s, 27° | - | - |
| 1787755149 | 24.44° C | 54% | 1011.1 hPa | 0 mm | 0.45 m/s, 68° | - | - |
| 1787755149 | 23.89° C | 54% | 1011.3 hPa | 0 mm | 0.45 m/s, 2° | - | - |
| 1787755141 | 23.33° C | 58% | 1011.2 hPa | 0 mm | 0.45 m/s, 45° | - | - |
| 1787755131 | 23.33° C | 61% | 1011.3 hPa | 0 mm | 0.89 m/s, 1° | - | - |
| 1787754544 | 23.89° C | 54% | 1011.3 hPa | 0 mm | 0.45 m/s, 2° | - | - |
| 1787753944 | 23.33° C | 58% | 1011.2 hPa | 0 mm | 0.45 m/s, 45° | - | - |
| 1787753343 | 23.33° C | 61% | 1011.3 hPa | 0 mm | 0.89 m/s, 1° | - | - |
| 1787753227 | 22.78° C | 62% | 1011.2 hPa | 0 mm | 0.45 m/s, 56° | - | - |
| 1787753212 | 22.22° C | 62% | 1011.2 hPa | 0 mm | 0.45 m/s, 18° | - | - |
| 1787752744 | 23.33° C | 60% | 1011.2 hPa | 0 mm | 0.45 m/s, 53° | - | - |
| 1787752144 | 22.78° C | 62% | 1011.2 hPa | 0 mm | 0.45 m/s, 56° | - | - |
| 1787751543 | 22.22° C | 62% | 1011.2 hPa | 0 mm | 0.45 m/s, 18° | - | - |
| 1787750943 | 22.22° C | 64% | 1011.3 hPa | 0 mm | 0.45 m/s, 71° | - | - |
| 1787750346 | 21.67° C | 67% | 1011.2 hPa | 0 mm | 0.89 m/s, 106° | - | - |
| 1787749746 | 21.67° C | 68% | 1011.2 hPa | 0 mm | 0.45 m/s, 90° | - | - |
| 1787749387 | 21.11° C | 72% | 1011.2 hPa | 0 mm | 0 m/s | - | - |
| 1787749375 | 21.11° C | 71% | 1011.3 hPa | 0 mm | 0.45 m/s, 21° | - | - |
* Rain latest hour (hover to see other rain measurements)
** Current wind speed in m/s (hover to see current wind gust speed)